Time;durP1;ratioP1;P1;durP2;ratioP2;P2;SDS_P1;SDS_P2;PMS_P1;PMS_P2;Temp;Humidity;BMP_temperature;BMP_pressure;BME280_temperature;BME280_humidity;BME280_pressure;Samples;Min_cycle;Max_cycle;Signal;HPM_P1;HPM_P2
2021/03/04 00:00:32;;;;;;;56.45;26.88;;;5.40;99.90;;;6.54;84.18;101310.50;5040290;28;20031;-83
2021/03/04 00:02:58;;;;;;;58.05;29.13;;;5.30;99.90;;;6.47;85.05;101310.13;5047494;28;20031;-83
2021/03/04 00:05:24;;;;;;;56.25;28.25;;;5.30;99.90;;;6.43;84.96;101309.09;5049212;28;20021;-84
2021/03/04 00:07:50;;;;;;;58.63;29.73;;;5.20;99.90;;;6.40;85.17;101300.59;5032401;28;20026;-86
2021/03/04 00:10:21;;;;;;;54.80;26.30;;;5.20;99.90;;;6.30;85.63;101308.03;5026510;28;20055;-83
2021/03/04 00:12:48;;;;;;;49.05;27.50;;;5.10;99.90;;;6.25;85.65;101302.59;5043774;28;20032;-85
2021/03/04 00:15:21;;;;;;;53.08;27.30;;;5.10;99.90;;;6.24;85.76;101300.13;5031166;28;20550;-84
2021/03/04 00:17:48;;;;;;;55.33;28.58;;;5.00;99.90;;;6.13;85.73;101294.00;5042023;28;20049;-85
2021/03/04 00:20:30;;;;;;;57.25;28.30;;;4.90;99.90;;;6.09;86.16;101294.94;5035924;28;20385;-84
2021/03/04 00:22:56;;;;;;;54.22;27.95;;;4.90;99.90;;;6.00;86.26;101289.34;5045079;28;20315;-86
2021/03/04 00:25:29;;;;;;;60.10;29.88;;;4.80;99.90;;;6.01;86.44;101290.94;5045177;28;20032;-86
2021/03/04 00:27:58;;;;;;;54.00;27.80;;;4.80;99.90;;;5.94;86.19;101290.56;5044042;28;20029;-86
2021/03/04 00:30:25;;;;;;;55.63;28.42;;;4.70;99.90;;;5.89;86.31;101295.41;5052531;28;20037;-85
2021/03/04 00:32:51;;;;;;;58.80;28.38;;;4.70;99.90;;;5.84;86.87;101293.56;5037983;28;20076;-86
2021/03/04 00:35:17;;;;;;;57.85;29.00;;;4.60;99.90;;;5.83;86.63;101286.34;5037019;28;20040;-84
2021/03/04 00:37:43;;;;;;;61.53;30.08;;;4.70;99.90;;;5.81;87.17;101286.66;5035597;28;20060;-85
2021/03/04 00:40:16;;;;;;;62.42;31.00;;;4.60;99.90;;;5.85;87.05;101286.84;5062268;28;20013;-84
2021/03/04 00:42:43;;;;;;;73.32;31.90;;;4.60;99.90;;;5.90;87.98;101281.25;5048915;28;20030;-84
2021/03/04 00:45:18;;;;;;;75.60;33.63;;;4.70;99.90;;;5.95;88.01;101286.66;5040037;28;20172;-83
2021/03/04 00:47:44;;;;;;;73.03;32.88;;;4.70;99.90;;;5.98;87.80;101282.44;5033859;28;20034;-83
2021/03/04 00:50:13;;;;;;;61.90;30.42;;;4.70;99.90;;;5.93;88.03;101285.34;5056282;28;20021;-83
2021/03/04 00:52:39;;;;;;;63.80;30.55;;;4.70;99.90;;;5.86;88.19;101284.94;5053601;28;20416;-85
2021/03/04 00:55:06;;;;;;;74.03;32.00;;;4.60;99.90;;;5.80;88.54;101286.97;5037748;28;20064;-85
2021/03/04 00:57:33;;;;;;;62.72;31.75;;;4.60;99.90;;;5.85;88.35;101286.84;5046771;28;20085;-82
2021/03/04 00:59:59;;;;;;;60.28;29.92;;;4.60;99.90;;;5.84;88.19;101285.22;5054087;28;20029;-82
2021/03/04 01:02:25;;;;;;;65.82;32.35;;;4.60;99.90;;;5.78;88.76;101280.91;5034172;28;20458;-86
2021/03/04 01:04:51;;;;;;;71.55;31.60;;;4.60;99.90;;;5.80;88.63;101281.44;5037019;28;20041;-84
2021/03/04 01:07:16;;;;;;;62.67;32.42;;;4.60;99.90;;;5.85;88.54;101284.09;5036792;28;20516;-85
2021/03/04 01:09:42;;;;;;;63.03;32.25;;;4.60;99.90;;;5.80;88.67;101286.97;5031382;28;20044;-84
2021/03/04 01:12:09;;;;;;;62.63;30.98;;;4.60;99.90;;;5.76;88.48;101278.47;5045106;28;20037;-84
2021/03/04 01:14:35;;;;;;;66.70;34.15;;;4.60;99.90;;;5.78;88.93;101281.72;5042949;28;20033;-87
2021/03/04 01:17:01;;;;;;;77.03;35.78;;;4.60;99.90;;;5.86;89.07;101263.59;5041734;28;20036;-86
2021/03/04 01:19:27;;;;;;;71.50;34.92;;;4.60;99.90;;;5.92;89.38;101267.06;5035981;28;20025;-84
2021/03/04 01:21:53;;;;;;;73.55;35.72;;;4.70;99.90;;;6.00;89.54;101269.94;5041292;28;20029;-85
2021/03/04 01:24:19;;;;;;;74.57;35.58;;;4.80;99.90;;;6.09;89.15;101264.44;5048863;28;20025;-84
2021/03/04 01:26:45;;;;;;;70.05;36.65;;;4.80;99.90;;;6.19;89.43;101265.03;5032544;28;20025;-84
2021/03/04 01:29:11;;;;;;;81.03;39.17;;;4.90;99.90;;;6.32;89.13;101255.00;5027734;28;20037;-84
2021/03/04 01:31:36;;;;;;;70.00;35.42;;;5.00;99.90;;;6.44;89.27;101271.91;5052368;28;20029;-86
2021/03/04 01:34:02;;;;;;;69.97;35.38;;;5.10;99.90;;;6.50;88.93;101259.53;5042518;28;20038;-84
2021/03/04 01:36:28;;;;;;;81.53;40.47;;;5.20;99.90;;;6.57;88.86;101242.44;5024932;28;20481;-84
2021/03/04 01:38:54;;;;;;;92.45;46.72;;;5.30;99.90;;;6.64;89.23;101240.88;5029414;28;20026;-84
2021/03/04 01:41:20;;;;;;;82.53;42.72;;;5.30;99.90;;;6.73;88.99;101240.91;5040571;28;20026;-83
2021/03/04 01:43:46;;;;;;;84.00;43.05;;;5.40;99.90;;;6.77;89.26;101244.69;5032886;28;20018;-82
2021/03/04 01:46:13;;;;;;;87.55;46.33;;;5.40;99.90;;;6.83;89.14;101235.09;5033801;28;20081;-84
2021/03/04 01:48:40;;;;;;;83.70;42.22;;;5.50;99.90;;;6.90;88.99;101238.22;5047027;28;20101;-84
2021/03/04 01:51:06;;;;;;;83.28;41.83;;;5.60;99.90;;;6.87;88.89;101220.22;5054875;28;20048;-83
2021/03/04 01:53:33;;;;;;;84.93;41.17;;;5.60;99.90;;;6.88;88.72;101215.50;5054468;28;20033;-83
2021/03/04 01:56:00;;;;;;;86.32;41.95;;;5.60;99.90;;;6.89;89.02;101215.19;5053090;28;20048;-82
2021/03/04 01:58:26;;;;;;;100.05;51.80;;;5.60;99.90;;;7.00;88.89;101209.34;5058478;28;20030;-84
2021/03/04 02:00:53;;;;;;;99.13;49.60;;;5.70;99.90;;;7.13;89.04;101213.97;5054150;28;20057;-84
2021/03/04 02:03:24;;;;;;;83.40;44.60;;;5.80;99.90;;;7.15;89.00;101197.81;5057546;28;20515;-85
2021/03/04 02:05:50;;;;;;;89.18;46.25;;;5.80;99.90;;;7.19;88.73;101190.47;5047755;28;20025;-82
2021/03/04 02:08:37;;;;;;;92.53;46.03;;;5.80;99.90;;;7.25;88.07;101198.34;5040153;28;20044;-85
2021/03/04 02:11:18;;;;;;;63.30;33.22;;;5.90;99.90;;;7.14;87.19;101212.81;5042853;28;20235;-83
2021/03/04 02:13:56;;;;;;;67.00;33.75;;;5.80;99.90;;;7.06;87.18;101220.00;5038440;28;20052;-85
2021/03/04 02:16:37;;;;;;;72.43;34.03;;;5.70;99.90;;;6.98;87.17;101208.84;5034630;28;20049;-84
2021/03/04 02:19:38;;;;;;;68.35;33.88;;;5.70;99.90;;;6.87;87.23;101203.56;5044015;28;20033;-83
2021/03/04 02:22:40;;;;;;;55.72;28.88;;;5.60;99.90;;;6.74;87.69;101204.47;5029826;28;20038;-85
2021/03/04 02:25:55;;;;;;;65.72;32.70;;;5.50;99.90;;;6.67;87.96;101209.69;5043544;28;20033;-85
2021/03/04 02:28:26;;;;;;;89.45;43.20;;;5.40;99.90;;;6.71;88.56;101198.78;5031124;28;20033;-86
2021/03/04 02:31:00;;;;;;;86.38;44.85;;;5.40;99.90;;;6.72;89.06;101201.22;5034533;28;20450;-84
2021/03/04 02:33:30;;;;;;;98.10;49.72;;;5.40;99.90;;;6.77;89.50;101203.06;5040179;28;20028;-84
2021/03/04 02:36:02;;;;;;;104.55;51.85;;;5.50;99.90;;;6.83;89.94;101197.03;5050761;28;20025;-84
2021/03/04 02:38:30;;;;;;;116.50;53.88;;;5.50;99.90;;;6.89;90.17;101194.94;5053680;28;20018;-85
2021/03/04 02:41:00;;;;;;;110.13;54.90;;;5.60;99.90;;;6.89;90.07;101194.94;5056374;28;20048;-84
2021/03/04 02:43:28;;;;;;;112.82;55.25;;;5.60;99.90;;;6.86;90.13;101199.19;5052250;28;20029;-83
2021/03/04 02:45:56;;;;;;;116.30;56.25;;;5.60;99.90;;;6.86;90.11;101195.56;5056738;28;20072;-82
2021/03/04 02:48:25;;;;;;;110.90;53.55;;;5.60;99.90;;;6.89;90.63;101198.53;5052619;28;20033;-85
2021/03/04 02:50:53;;;;;;;114.55;53.90;;;5.60;99.90;;;6.98;90.09;101200.50;5057681;28;20017;-82
2021/03/04 02:53:22;;;;;;;108.18;53.55;;;5.60;99.90;;;7.00;90.33;101196.25;5045543;28;20104;-82
2021/03/04 02:55:51;;;;;;;100.05;50.60;;;5.70;99.90;;;6.95;89.85;101192.81;5064984;28;20077;-82
2021/03/04 02:58:18;;;;;;;98.38;48.40;;;5.70;99.90;;;6.95;89.81;101192.81;5049196;28;20037;-82
2021/03/04 03:00:48;;;;;;;99.55;51.17;;;5.70;99.90;;;6.94;89.34;101196.72;5046585;28;20029;-85
2021/03/04 03:03:16;;;;;;;103.22;50.53;;;5.60;99.90;;;6.95;89.45;101195.59;5041790;28;20030;-85
2021/03/04 03:05:46;;;;;;;105.18;50.92;;;5.70;99.90;;;6.94;89.65;101185.63;5041871;28;20036;-85
2021/03/04 03:08:18;;;;;;;95.70;49.00;;;5.60;99.90;;;6.95;89.90;101187.25;5028743;28;20048;-83
2021/03/04 03:10:51;;;;;;;97.43;48.88;;;5.60;99.90;;;6.96;89.32;101180.59;5034277;28;20060;-84
2021/03/04 03:13:20;;;;;;;95.40;49.85;;;5.60;99.90;;;6.94;89.49;101180.88;5031248;28;20059;-82
2021/03/04 03:15:46;;;;;;;91.75;46.75;;;5.60;99.90;;;6.93;89.21;101181.22;5028944;28;20038;-84
2021/03/04 03:18:12;;;;;;;102.43;48.65;;;5.60;99.90;;;6.88;89.67;101199.66;5041668;28;20022;-85
2021/03/04 03:20:38;;;;;;;90.70;46.58;;;5.60;99.90;;;6.84;89.32;101181.16;5037913;28;20022;-85
2021/03/04 03:23:07;;;;;;;96.82;48.08;;;5.60;99.90;;;6.75;89.29;101175.59;5042610;28;20476;-85
2021/03/04 03:25:33;;;;;;;96.00;47.83;;;5.50;99.90;;;6.75;89.44;101172.81;5053943;28;20214;-85
2021/03/04 03:27:59;;;;;;;99.15;49.15;;;5.50;99.90;;;6.75;89.63;101163.66;5045287;28;20056;-85
2021/03/04 03:30:29;;;;;;;91.88;47.90;;;5.40;99.90;;;6.74;89.94;101168.38;5042536;28;20030;-85
2021/03/04 03:33:08;;;;;;;94.75;49.63;;;5.40;99.90;;;6.77;89.70;101172.50;5034589;28;20030;-84
2021/03/04 03:35:37;;;;;;;96.03;47.75;;;5.40;99.90;;;6.74;89.78;101170.38;5042889;28;20466;-83
2021/03/04 03:38:06;;;;;;;97.65;50.42;;;5.40;99.90;;;6.73;89.52;101168.72;5035537;28;20042;-85
2021/03/04 03:40:35;;;;;;;98.05;49.45;;;5.40;99.90;;;6.74;89.79;101156.50;5043556;28;20026;-82
2021/03/04 03:43:10;;;;;;;92.65;46.90;;;5.40;99.90;;;6.74;90.10;101153.72;5041029;28;20053;-86
2021/03/04 03:45:43;;;;;;;97.60;49.72;;;5.40;99.90;;;6.74;90.11;101143.41;5037008;28;20026;-84
2021/03/04 03:48:14;;;;;;;93.50;47.20;;;5.40;99.90;;;6.72;90.20;101144.88;5040035;28;20026;-85
2021/03/04 03:50:49;;;;;;;97.47;48.83;;;5.40;99.90;;;6.71;90.26;101132.94;5032868;28;20362;-85
2021/03/04 03:53:17;;;;;;;100.05;48.90;;;5.40;99.90;;;6.71;90.39;101130.16;5027355;28;20030;-85
2021/03/04 03:55:52;;;;;;;101.30;49.97;;;5.40;99.90;;;6.73;90.46;101127.09;5036968;28;20390;-86
2021/03/04 03:58:22;;;;;;;105.38;47.80;;;5.40;99.90;;;6.74;89.80;101128.72;5028108;28;20064;-85
2021/03/04 04:00:55;;;;;;;97.93;46.17;;;5.40;99.90;;;6.70;90.26;101125.78;5046562;28;20502;-85
2021/03/04 04:03:24;;;;;;;110.90;50.22;;;5.40;99.90;;;6.73;89.98;101122.34;5034860;28;20017;-84
2021/03/04 04:05:51;;;;;;;97.60;49.40;;;5.40;99.90;;;6.73;89.59;101113.19;5037427;28;20018;-84
2021/03/04 04:08:23;;;;;;;101.40;49.47;;;5.40;99.90;;;6.70;89.96;101109.13;5039218;28;20029;-84
2021/03/04 04:10:50;;;;;;;100.88;49.42;;;5.40;99.90;;;6.67;90.22;101103.38;5047458;28;20385;-85
2021/03/04 04:13:20;;;;;;;96.15;49.17;;;5.40;99.90;;;6.68;90.18;101088.34;5035382;28;20025;-86
2021/03/04 04:15:46;;;;;;;101.47;50.42;;;5.40;99.90;;;6.67;90.25;101087.56;5047344;28;20037;-86
2021/03/04 04:18:13;;;;;;;99.38;49.45;;;5.30;99.90;;;6.66;89.96;101085.91;5034017;28;20520;-85
2021/03/04 04:20:39;;;;;;;96.07;49.75;;;5.40;99.90;;;6.67;89.95;101076.44;5044894;28;20025;-84
2021/03/04 04:23:07;;;;;;;106.55;52.55;;;5.30;99.90;;;6.64;89.89;101070.72;5042551;28;20034;-83
2021/03/04 04:25:49;;;;;;;108.90;53.72;;;5.40;99.90;;;6.63;90.58;101061.56;5051750;28;20021;-82
2021/03/04 04:28:17;;;;;;;106.10;50.60;;;5.40;99.90;;;6.67;90.27;101061.75;5058719;28;20096;-85
2021/03/04 04:30:42;;;;;;;108.45;53.40;;;5.40;99.90;;;6.64;90.68;101071.53;5033206;28;20036;-84
2021/03/04 04:33:09;;;;;;;109.82;55.17;;;5.40;99.90;;;6.64;90.10;101071.53;5042485;28;20485;-82
2021/03/04 04:35:35;;;;;;;111.05;53.35;;;5.40;99.90;;;6.64;89.62;101065.19;5042817;28;20025;-84
2021/03/04 04:38:02;;;;;;;104.38;51.25;;;5.40;99.90;;;6.63;89.82;101061.56;5040578;28;20026;-84
2021/03/04 04:40:27;;;;;;;103.45;52.13;;;5.30;99.90;;;6.55;89.88;101056.78;5029769;28;20022;-85
2021/03/04 04:42:53;;;;;;;107.78;53.10;;;5.30;99.90;;;6.51;90.01;101061.38;5026195;28;20371;-84
2021/03/04 04:45:19;;;;;;;108.25;54.33;;;5.20;99.90;;;6.47;90.14;101056.78;5026908;28;20385;-84
2021/03/04 04:47:45;;;;;;;107.15;52.38;;;5.20;99.90;;;6.39;90.43;101058.38;5030630;28;20056;-84
2021/03/04 04:50:12;;;;;;;109.40;51.70;;;5.10;99.90;;;6.32;90.29;101064.38;5052322;28;20060;-84
2021/03/04 04:52:38;;;;;;;108.40;53.30;;;5.10;99.90;;;6.30;90.86;101069.44;5039692;28;20048;-84
2021/03/04 04:55:05;;;;;;;104.32;52.30;;;5.10;99.90;;;6.27;90.87;101072.84;5034436;28;20022;-83
2021/03/04 04:57:31;;;;;;;112.22;55.83;;;5.00;99.90;;;6.26;90.72;101064.88;5036069;28;20528;-85
2021/03/04 04:59:57;;;;;;;109.43;54.47;;;5.00;99.90;;;6.16;90.95;101059.59;5037946;28;20021;-85
2021/03/04 05:02:23;;;;;;;111.22;53.80;;;4.90;99.90;;;6.18;91.00;101063.69;5029323;28;20030;-85
2021/03/04 05:04:49;;;;;;;114.43;54.65;;;4.90;99.90;;;6.17;91.20;101073.13;5034851;28;20423;-86
2021/03/04 05:07:15;;;;;;;116.03;52.40;;;4.90;99.90;;;6.18;91.13;101074.78;5026133;28;20049;-84
2021/03/04 05:09:40;;;;;;;128.68;56.90;;;4.90;99.90;;;6.17;91.17;101064.81;5028185;28;20025;-84
2021/03/04 05:12:07;;;;;;;120.00;55.45;;;4.90;99.90;;;6.15;91.00;101069.03;5030459;28;20057;-84
2021/03/04 05:14:33;;;;;;;118.70;54.55;;;4.90;99.90;;;6.15;91.31;101069.03;5046407;28;20026;-86
2021/03/04 05:16:59;;;;;;;114.68;53.05;;;4.90;99.90;;;6.15;91.20;101071.81;5034078;28;20154;-82
2021/03/04 05:19:25;;;;;;;108.53;51.63;;;4.90;99.90;;;6.19;90.77;101081.16;5029008;28;20045;-82
2021/03/04 05:21:51;;;;;;;108.25;52.30;;;4.90;99.90;;;6.17;90.86;101084.22;5025907;28;20089;-84
2021/03/04 05:24:16;;;;;;;102.68;52.17;;;4.90;99.90;;;6.21;90.96;101087.19;5037464;28;20113;-84
2021/03/04 05:26:42;;;;;;;111.80;52.92;;;4.90;99.90;;;6.23;90.77;101087.66;5035826;28;20026;-84
2021/03/04 05:29:08;;;;;;;103.80;50.03;;;4.90;99.90;;;6.18;90.64;101090.59;5028759;28;20025;-83
2021/03/04 05:31:34;;;;;;;102.65;51.47;;;4.90;99.90;;;6.08;90.93;101082.53;5036128;28;20095;-83
2021/03/04 05:34:03;;;;;;;104.57;49.83;;;4.90;99.90;;;6.01;90.96;101082.97;5049562;28;20072;-82
2021/03/04 05:36:34;;;;;;;106.38;52.70;;;4.80;99.90;;;6.05;91.10;101081.22;5036361;28;20121;-85
2021/03/04 05:39:02;;;;;;;108.30;51.53;;;4.80;99.90;;;6.07;91.05;101080.91;5028989;28;20128;-84
2021/03/04 05:41:33;;;;;;;113.15;53.70;;;4.80;99.90;;;6.02;91.52;101076.31;5022492;28;20033;-84
2021/03/04 05:44:00;;;;;;;120.65;55.03;;;4.80;99.90;;;6.00;91.14;101067.50;5020978;28;20568;-83
2021/03/04 05:46:26;;;;;;;126.78;54.20;;;4.80;99.90;;;6.05;91.13;101063.75;5017671;28;20398;-85
2021/03/04 05:48:55;;;;;;;117.07;53.72;;;4.70;99.90;;;6.07;91.27;101055.97;5018101;28;20150;-82
2021/03/04 05:51:36;;;;;;;117.93;51.83;;;4.70;99.90;;;6.03;91.59;101046.63;5024340;28;20041;-83
2021/03/04 05:54:10;;;;;;;115.10;52.50;;;4.70;99.90;;;6.01;91.83;101049.72;5027934;28;20046;-84
2021/03/04 05:56:41;;;;;;;117.32;54.10;;;4.70;99.90;;;6.00;92.08;101044.50;5033826;28;20043;-83
2021/03/04 05:59:09;;;;;;;117.43;52.28;;;4.70;99.90;;;5.96;91.63;101038.78;5032143;28;20044;-82
2021/03/04 06:01:35;;;;;;;118.82;55.15;;;4.70;99.90;;;5.93;91.86;101035.81;5029258;28;20080;-81
2021/03/04 06:04:02;;;;;;;126.00;53.53;;;4.70;99.90;;;5.95;91.76;101037.13;5041393;28;20293;-83
2021/03/04 06:06:28;;;;;;;126.85;57.70;;;4.70;99.90;;;5.93;92.03;101049.69;5041216;28;20064;-84
2021/03/04 06:08:54;;;;;;;129.48;56.90;;;4.60;99.90;;;5.86;92.63;101046.53;5039614;28;20136;-84
2021/03/04 06:11:20;;;;;;;119.43;55.53;;;4.60;99.90;;;5.84;92.07;101042.06;5045860;28;20040;-82
2021/03/04 06:13:46;;;;;;;136.80;57.85;;;4.60;99.90;;;5.88;92.25;101024.84;5041234;28;20091;-84
2021/03/04 06:16:13;;;;;;;137.85;59.10;;;4.60;99.90;;;5.90;92.29;101012.31;5035992;28;20029;-82
2021/03/04 06:18:44;;;;;;;154.25;59.90;;;4.60;99.90;;;5.91;92.40;100999.28;5023547;28;20121;-81
2021/03/04 06:21:26;;;;;;;167.85;63.28;;;4.60;99.90;;;5.86;92.63;100993.84;5038580;28;20060;-81
2021/03/04 06:23:54;;;;;;;166.68;61.65;;;4.60;99.90;;;5.88;92.73;100997.13;5027371;28;20026;-82
2021/03/04 06:26:37;;;;;;;169.75;64.25;;;4.60;99.90;;;5.86;92.21;101019.63;5024815;28;20092;-84
2021/03/04 06:29:25;;;;;;;185.60;68.18;;;4.60;99.90;;;5.79;92.66;101022.81;5033864;28;20091;-84
2021/03/04 06:32:06;;;;;;;160.00;63.45;;;4.60;99.90;;;5.72;92.85;101044.63;5038065;28;20029;-81
2021/03/04 06:34:34;;;;;;;171.40;62.42;;;4.60;99.90;;;5.74;92.98;101030.47;5034062;28;20041;-83
2021/03/04 06:37:04;;;;;;;176.63;68.03;;;4.50;99.90;;;5.79;92.98;101022.00;5026827;28;20038;-82
2021/03/04 06:39:47;;;;;;;158.68;61.70;;;4.50;99.90;;;5.75;92.96;101030.13;5023053;28;20033;-81
2021/03/04 06:42:15;;;;;;;180.77;63.90;;;4.50;99.90;;;5.67;93.39;101038.38;5037638;28;20037;-83
2021/03/04 06:44:55;;;;;;;175.13;65.65;;;4.50;99.90;;;5.76;93.15;101028.19;5036336;28;20039;-81
2021/03/04 06:47:28;;;;;;;177.20;66.45;;;4.50;99.90;;;5.76;93.35;101020.69;5031387;28;20037;-85
2021/03/04 06:49:56;;;;;;;174.82;64.18;;;4.50;99.90;;;5.83;93.34;101020.22;5029096;28;20030;-84
2021/03/04 06:52:32;;;;;;;235.07;72.53;;;4.50;99.90;;;5.81;93.21;101015.00;5044249;28;20088;-80
2021/03/04 06:55:14;;;;;;;;;;;4.60;99.90;;;5.83;92.49;101023.00;5043463;28;20043;-84
2021/03/04 06:57:41;;;;;;;219.18;66.50;;;4.50;99.90;;;5.77;92.64;101025.09;5045002;28;19960;-80
2021/03/04 07:00:19;;;;;;;195.48;68.50;;;4.50;99.90;;;5.75;92.52;101018.22;5057811;28;20025;-82
2021/03/04 07:02:58;;;;;;;184.63;64.13;;;4.50;99.90;;;5.76;92.94;101029.00;5018657;28;20045;-81
2021/03/04 07:05:27;;;;;;;196.48;64.05;;;4.50;99.90;;;5.86;92.80;101047.34;5046520;28;20045;-82
2021/03/04 07:07:57;;;;;;;244.68;74.65;;;4.60;99.90;;;5.89;92.73;101054.22;5030335;28;20043;-82
2021/03/04 07:10:27;;;;;;;274.70;89.15;;;4.60;99.90;;;5.87;92.24;101053.72;5024862;28;20169;-82
2021/03/04 07:12:53;;;;;;;218.38;75.22;;;4.60;99.90;;;5.90;91.94;101058.63;5036951;28;20030;-82
2021/03/04 07:15:21;;;;;;;157.27;60.60;;;4.60;99.90;;;5.84;91.78;101049.59;5025205;28;20030;-82
2021/03/04 07:17:50;;;;;;;179.10;63.78;;;4.60;99.90;;;5.87;92.13;101064.81;5028730;28;20036;-82
2021/03/04 07:20:20;;;;;;;175.23;61.20;;;4.60;99.90;;;5.90;92.31;101061.41;5040196;28;20389;-83
2021/03/04 07:22:49;;;;;;;158.40;58.75;;;4.60;99.90;;;5.95;91.97;101061.25;5033775;28;20028;-84
2021/03/04 07:25:16;;;;;;;168.82;59.58;;;4.60;99.90;;;6.01;92.14;101073.84;5035076;28;20129;-84
2021/03/04 07:27:45;;;;;;;165.57;59.95;;;4.70;99.90;;;6.03;92.31;101080.72;5035654;28;20021;-82
2021/03/04 07:30:14;;;;;;;176.82;62.58;;;4.70;99.90;;;5.93;92.17;101094.03;5039576;28;20029;-83
2021/03/04 07:32:43;;;;;;;149.57;57.20;;;4.70;99.90;;;5.88;91.62;101106.06;5043482;28;20105;-83
2021/03/04 07:35:14;;;;;;;150.25;61.15;;;4.70;99.90;;;5.77;92.33;101099.13;5028471;28;20128;-84
2021/03/04 07:37:44;;;;;;;151.18;62.42;;;4.60;99.90;;;5.78;92.54;101096.00;5031596;28;20065;-82
2021/03/04 07:40:14;;;;;;;160.73;63.50;;;4.60;99.90;;;5.78;93.24;101103.50;5029808;28;20160;-82
2021/03/04 07:42:40;;;;;;;167.50;63.40;;;4.60;99.90;;;5.82;93.46;101097.03;5031474;28;20029;-82
2021/03/04 07:45:18;;;;;;;179.52;64.63;;;4.60;99.90;;;5.88;93.17;101094.16;5031719;28;20059;-83
2021/03/04 07:47:44;;;;;;;169.88;61.55;;;4.60;99.90;;;5.95;93.02;101084.25;5022603;28;20122;-83
2021/03/04 07:50:24;;;;;;;156.48;60.92;;;4.70;99.90;;;5.91;93.37;101096.31;5022376;28;20045;-84
2021/03/04 07:53:04;;;;;;;154.73;60.63;;;4.70;99.90;;;5.96;92.81;101080.34;5029445;28;20049;-83
2021/03/04 07:55:54;;;;;;;162.88;62.72;;;4.70;99.90;;;6.01;93.05;101079.38;5025521;28;20113;-82
2021/03/04 07:58:20;;;;;;;166.40;63.60;;;4.80;99.90;;;6.02;92.95;101084.63;5027404;28;20090;-82
2021/03/04 08:00:46;;;;;;;166.40;65.60;;;4.80;99.90;;;5.99;93.28;101078.91;5029088;28;20028;-83
2021/03/04 08:03:12;;;;;;;166.57;64.22;;;4.80;99.90;;;6.09;93.29;101060.03;5028177;28;20033;-82
2021/03/04 08:05:44;;;;;;;175.75;65.78;;;4.90;99.90;;;6.12;93.27;101044.72;5021297;28;20067;-84
2021/03/04 08:08:18;;;;;;;170.25;68.18;;;4.90;99.90;;;6.18;93.13;101038.72;5034741;28;20045;-81
2021/03/04 08:10:56;;;;;;;170.85;65.40;;;4.90;99.90;;;6.19;93.31;101045.09;5035245;28;20056;-83
2021/03/04 08:13:38;;;;;;;170.43;65.07;;;4.90;99.90;;;6.14;93.50;101053.53;5026597;28;20041;-83
2021/03/04 08:16:16;;;;;;;169.07;63.63;;;4.90;99.90;;;6.21;93.67;101068.59;5029879;28;20377;-82
2021/03/04 08:18:45;;;;;;;163.63;60.97;;;4.90;99.90;;;6.26;93.53;101059.31;5033581;28;20034;-82
2021/03/04 08:21:11;;;;;;;176.90;65.15;;;4.90;99.90;;;6.26;93.46;101064.88;5035099;28;20032;-83
2021/03/04 08:23:47;;;;;;;165.27;64.07;;;4.90;99.90;;;6.19;93.47;101070.03;5023303;28;20049;-82
2021/03/04 08:26:29;;;;;;;165.98;63.13;;;5.00;99.90;;;6.23;93.51;101065.47;5038011;28;20040;-83
2021/03/04 08:29:10;;;;;;;162.93;62.80;;;4.90;99.90;;;6.18;93.85;101068.41;5024613;28;20029;-80
2021/03/04 08:31:45;;;;;;;162.88;60.65;;;4.90;99.90;;;6.18;93.67;101062.84;5028148;28;20034;-82
2021/03/04 08:34:11;;;;;;;147.90;58.17;;;4.90;99.90;;;6.17;93.64;101053.72;5034495;28;20030;-83
2021/03/04 08:36:47;;;;;;;153.20;61.17;;;4.90;99.90;;;6.15;93.65;101061.53;5019520;28;20068;-82
2021/03/04 08:39:15;;;;;;;149.13;55.80;;;4.90;99.90;;;6.13;93.93;101066.56;5031961;28;20060;-81
2021/03/04 08:41:41;;;;;;;135.80;57.10;;;4.90;99.90;;;6.19;93.78;101064.50;5036371;28;20026;-81
2021/03/04 08:44:18;;;;;;;139.88;54.42;;;4.90;99.90;;;6.16;93.47;101068.75;5035591;28;20052;-81
2021/03/04 08:46:50;;;;;;;140.98;55.78;;;4.90;99.90;;;6.16;93.87;101071.50;5029704;28;20030;-82
2021/03/04 08:49:23;;;;;;;140.02;55.60;;;4.90;99.90;;;6.18;94.19;101074.78;5027083;28;20132;-83
2021/03/04 08:51:49;;;;;;;131.25;53.50;;;4.90;99.90;;;6.19;93.78;101070.88;5029990;28;20083;-83
2021/03/04 08:54:29;;;;;;;124.47;49.13;;;4.90;99.90;;;6.09;93.74;101067.53;5025871;28;20470;-82
2021/03/04 08:57:05;;;;;;;124.20;46.90;;;4.80;99.90;;;6.09;93.74;101062.81;5027545;28;20477;-81
2021/03/04 08:59:32;;;;;;;118.07;46.03;;;4.80;99.90;;;5.95;94.27;101052.94;5042977;28;20560;-81
2021/03/04 09:01:59;;;;;;;111.72;43.85;;;4.70;99.90;;;5.90;94.31;101051.13;5040551;28;20040;-82
2021/03/04 09:04:31;;;;;;;114.25;46.97;;;4.70;99.90;;;5.89;94.43;101032.84;5050098;28;20030;-82
2021/03/04 09:06:57;;;;;;;106.00;44.63;;;4.70;99.90;;;5.88;94.14;101030.38;5017717;28;20049;-81
2021/03/04 09:09:31;;;;;;;116.07;45.03;;;4.70;99.90;;;5.88;94.66;101020.13;5039903;28;20075;-82
2021/03/04 09:12:00;;;;;;;117.10;44.75;;;4.70;99.90;;;5.90;94.51;101022.59;5027875;28;20101;-82
2021/03/04 09:14:33;;;;;;;109.65;43.90;;;4.70;99.90;;;5.91;94.36;101013.13;5032631;28;20009;-81
2021/03/04 09:17:01;;;;;;;114.50;46.72;;;4.70;99.90;;;5.89;94.64;101001.53;5047729;28;20041;-83
2021/03/04 09:19:41;;;;;;;111.03;44.38;;;4.60;99.90;;;5.90;95.15;101001.22;5022552;28;20512;-82
2021/03/04 09:22:12;;;;;;;95.88;39.80;;;4.70;99.90;;;5.94;94.50;100998.63;5037398;28;20041;-82
2021/03/04 09:24:39;;;;;;;91.13;39.60;;;4.60;99.90;;;5.94;94.75;100990.31;5027134;28;20025;-82
2021/03/04 09:27:12;;;;;;;82.60;33.50;;;4.60;99.90;;;5.81;94.56;100976.19;5029946;28;20021;-81
2021/03/04 09:29:43;;;;;;;72.60;28.77;;;4.70;99.90;;;5.75;94.92;100965.56;5021514;28;20037;-80
2021/03/04 09:32:13;;;;;;;57.70;27.80;;;4.70;99.90;;;5.79;94.46;100972.09;5031277;28;20037;-83
2021/03/04 09:34:45;;;;;;;66.65;31.30;;;4.60;99.90;;;5.83;94.36;100965.63;5020453;28;20022;-82
2021/03/04 09:37:30;;;;;;;63.35;29.08;;;4.60;99.90;;;5.78;94.68;100976.81;5025446;28;20026;-81
2021/03/04 09:40:08;;;;;;;;;;;;;;;;;;;;;
2021/03/04 09:42:39;;;;;;;55.97;26.95;;;4.60;99.90;;;5.86;94.56;100968.91;5018568;28;20101;-79
2021/03/04 09:45:11;;;;;;;53.55;24.58;;;4.70;99.90;;;5.89;94.24;100968.25;5031375;28;20076;-81
2021/03/04 09:47:47;;;;;;;41.53;21.10;;;4.60;99.90;;;5.82;94.17;100977.00;5032529;28;20025;-81
2021/03/04 09:50:28;;;;;;;42.30;21.65;;;4.60;99.90;;;5.89;93.97;100985.72;5030175;28;20056;-80
2021/03/04 09:53:05;;;;;;;44.03;22.23;;;4.60;99.90;;;5.89;94.15;100979.34;5034981;28;20037;-83
2021/03/04 09:55:43;;;;;;;42.08;22.00;;;4.60;99.90;;;5.94;94.20;100987.56;5037943;28;20034;-81
2021/03/04 09:58:15;;;;;;;35.83;18.90;;;4.60;99.90;;;6.01;94.11;100991.47;5029548;28;20033;-80
2021/03/04 10:00:54;;;;;;;48.75;24.23;;;4.70;99.90;;;6.08;94.01;101000.16;5027116;28;20026;-80
2021/03/04 10:03:20;;;;;;;44.40;21.25;;;4.70;99.90;;;6.13;93.82;101000.00;5029632;28;20535;-82
2021/03/04 10:05:51;;;;;;;41.88;21.55;;;4.80;99.90;;;6.09;93.69;101001.81;5027647;28;20033;-83
2021/03/04 10:08:20;;;;;;;44.55;21.83;;;4.80;99.90;;;6.13;93.43;101005.56;5028384;28;20029;-81
2021/03/04 10:10:51;;;;;;;44.55;22.30;;;4.80;99.90;;;6.19;93.83;101009.03;5043630;28;20038;-81
2021/03/04 10:13:30;;;;;;;44.78;22.75;;;4.80;99.90;;;6.21;93.49;101007.56;5018158;28;20124;-82
2021/03/04 10:16:07;;;;;;;37.92;21.40;;;4.90;99.90;;;6.35;93.74;101015.78;5030731;28;20030;-84
2021/03/04 10:18:33;;;;;;;30.10;16.58;;;5.00;99.90;;;6.36;92.93;101011.84;5028957;28;20034;-81
2021/03/04 10:21:02;;;;;;;27.80;15.77;;;5.00;99.90;;;6.37;93.04;101010.72;5023699;28;20059;-81
2021/03/04 10:23:27;;;;;;;26.75;13.45;;;5.00;99.90;;;6.40;92.86;101004.53;5027368;28;20028;-81